Time;durP1;ratioP1;P1;durP2;ratioP2;P2;SDS_P1;SDS_P2;PMS_P1;PMS_P2;Temp;Humidity;BMP_temperature;BMP_pressure;BME280_temperature;BME280_humidity;BME280_pressure;Samples;Min_cycle;Max_cycle;Signal;HPM_P1;HPM_P2
2023/03/16 00:00:39;;;;;;;8.23;4.35;;;;;;;3.97;100.00;101762.84;5112323;27;20020;-68
2023/03/16 00:03:04;;;;;;;5.10;4.03;;;;;;;4.00;100.00;101754.78;5112965;28;20035;-69
2023/03/16 00:05:30;;;;;;;7.45;4.63;;;;;;;4.00;100.00;101754.78;5113252;28;20059;-68
2023/03/16 00:07:56;;;;;;;7.28;4.70;;;;;;;3.97;100.00;101746.16;5113517;28;20475;-70
2023/03/16 00:10:26;;;;;;;5.90;4.10;;;;;;;3.96;100.00;101749.75;5114140;28;20027;-69
2023/03/16 00:12:52;;;;;;;6.90;4.25;;;;;;;3.93;100.00;101753.38;5113195;28;20498;-68
2023/03/16 00:15:18;;;;;;;7.97;4.68;;;;;;;3.93;100.00;101748.09;5113833;28;20063;-69
2023/03/16 00:17:47;;;;;;;8.10;4.28;;;;;;;3.94;100.00;101746.31;5113467;28;20121;-69
2023/03/16 00:20:13;;;;;;;8.48;5.00;;;;;;;3.94;100.00;101743.69;5113958;27;20042;-69
2023/03/16 00:22:40;;;;;;;9.93;4.90;;;;;;;3.89;100.00;101742.13;5113984;27;20058;-69
2023/03/16 00:25:07;;;;;;;8.02;4.80;;;;;;;3.87;100.00;101738.72;5113328;28;20036;-68
2023/03/16 00:27:32;;;;;;;7.50;4.70;;;;;;;3.87;100.00;101735.25;5113809;28;20055;-69
2023/03/16 00:29:58;;;;;;;7.95;4.10;;;;;;;3.88;100.00;101735.16;5113322;28;20373;-70
2023/03/16 00:32:26;;;;;;;9.82;4.75;;;;;;;3.89;100.00;101730.75;5113717;28;20032;-69
2023/03/16 00:34:51;;;;;;;7.35;4.82;;;;;;;3.91;100.00;101725.41;5113221;28;20168;-69
2023/03/16 00:37:18;;;;;;;5.82;4.50;;;;;;;3.92;100.00;101729.75;5112574;28;20477;-69
2023/03/16 00:39:45;;;;;;;6.07;4.18;;;;;;;3.92;100.00;101727.13;5113534;28;20070;-69
2023/03/16 00:42:13;;;;;;;6.55;4.15;;;;;;;3.92;100.00;101719.22;5113713;28;20039;-70
2023/03/16 00:44:40;;;;;;;8.95;5.00;;;;;;;3.93;100.00;101723.56;5113186;28;20495;-68
2023/03/16 00:47:07;;;;;;;11.80;5.10;;;;;;;3.93;100.00;101727.03;5112908;28;20044;-68
2023/03/16 00:49:33;;;;;;;8.98;4.30;;;;;;;3.92;100.00;101712.16;5112663;28;20112;-68
2023/03/16 00:52:04;;;;;;;7.35;4.93;;;;;;;3.92;100.00;101712.16;5112914;28;20024;-68
2023/03/16 00:54:33;;;;;;;6.53;4.40;;;;;;;3.93;100.00;101705.13;5113262;28;20055;-68
2023/03/16 00:56:59;;;;;;;12.88;4.82;;;;;;;3.95;100.00;101703.25;5111862;28;20165;-69
2023/03/16 00:59:25;;;;;;;7.00;4.60;;;;;;;3.94;100.00;101701.56;5113061;28;20031;-69
2023/03/16 01:01:51;;;;;;;6.53;4.35;;;;;;;3.94;100.00;101698.91;5112438;28;20053;-69
2023/03/16 01:04:18;;;;;;;7.22;4.78;;;;;;;3.97;100.00;101697.00;5112981;28;20084;-69
2023/03/16 01:06:43;;;;;;;7.30;4.93;;;;;;;3.97;100.00;101697.00;5113114;28;20067;-68
2023/03/16 01:09:09;;;;;;;8.98;4.75;;;;;;;3.97;100.00;101693.50;5111403;28;20047;-69
2023/03/16 01:11:34;;;;;;;10.50;5.10;;;;;;;4.00;100.00;101694.22;5112771;28;20039;-69
2023/03/16 01:14:00;;;;;;;7.85;4.80;;;;;;;4.01;100.00;101693.25;5112594;28;20037;-69
2023/03/16 01:16:26;;;;;;;8.95;4.97;;;;;;;4.03;100.00;101690.56;5113131;28;20483;-69
2023/03/16 01:18:52;;;;;;;6.50;4.75;;;;;;;4.03;100.00;101686.16;5112550;28;20031;-69
2023/03/16 01:21:18;;;;;;;10.02;5.53;;;;;;;4.04;100.00;101679.94;5112998;28;20051;-68
2023/03/16 01:23:43;;;;;;;20.52;5.05;;;;;;;4.06;100.00;101675.47;5112500;28;20028;-68
2023/03/16 01:26:09;;;;;;;8.32;5.18;;;;;;;4.07;100.00;101676.31;5112204;28;20044;-68
2023/03/16 01:28:36;;;;;;;7.70;5.50;;;;;;;4.06;100.00;101672.84;5113273;28;20039;-68
2023/03/16 01:31:06;;;;;;;8.02;5.10;;;;;;;4.06;100.00;101674.59;5112390;28;20067;-69
2023/03/16 01:33:32;;;;;;;9.05;5.90;;;;;;;4.05;100.00;101670.28;5112902;28;20026;-69
2023/03/16 01:36:00;;;;;;;8.15;5.47;;;;;;;4.05;100.00;101665.84;5112381;28;20472;-68
2023/03/16 01:38:26;;;;;;;13.13;5.60;;;;;;;4.09;100.00;101663.06;5112596;28;20023;-68
2023/03/16 01:40:53;;;;;;;8.73;5.57;;;;;;;4.08;100.00;101656.97;5112468;28;20374;-68
2023/03/16 01:43:25;;;;;;;11.55;5.70;;;;;;;4.12;100.00;101655.00;5111077;28;20131;-68
2023/03/16 01:46:06;;;;;;;12.32;5.55;;;;;;;4.12;100.00;101653.25;5112304;28;20468;-68
2023/03/16 01:48:36;;;;;;;7.85;5.13;;;;;;;4.13;100.00;101652.28;5112296;28;20042;-69
2023/03/16 01:51:06;;;;;;;9.20;5.30;;;;;;;4.12;100.00;101647.97;5112150;28;20352;-69
2023/03/16 01:53:33;;;;;;;9.85;5.97;;;;;;;4.14;100.00;101638.22;5112790;28;20097;-69
2023/03/16 01:56:04;;;;;;;13.35;5.25;;;;;;;4.13;100.00;101644.41;5112122;28;20072;-68
2023/03/16 01:58:30;;;;;;;10.30;5.88;;;;;;;4.13;100.00;101636.50;5111377;28;20019;-68
2023/03/16 02:00:57;;;;;;;9.32;6.47;;;;;;;4.12;100.00;101639.22;5112225;28;20032;-68
2023/03/16 02:03:26;;;;;;;9.38;5.95;;;;;;;4.11;100.00;101640.16;5116768;28;20100;-68
2023/03/16 02:06:03;;;;;;;9.95;6.13;;;;;;;4.09;100.00;101636.72;5116195;28;20036;-69
2023/03/16 02:08:30;;;;;;;8.18;5.60;;;;;;;4.03;100.00;101633.50;5116091;28;20464;-69
2023/03/16 02:10:58;;;;;;;10.23;6.13;;;;;;;3.98;100.00;101630.22;5116168;28;20062;-69
2023/03/16 02:13:24;;;;;;;9.65;6.07;;;;;;;3.93;100.00;101626.13;5116333;28;20045;-69
2023/03/16 02:15:52;;;;;;;9.55;6.25;;;;;;;3.86;100.00;101621.16;5116124;28;20031;-69
2023/03/16 02:18:18;;;;;;;17.13;6.45;;;;;;;3.79;100.00;101618.91;5114566;28;20487;-69
2023/03/16 02:20:53;;;;;;;11.02;6.90;;;;;;;3.74;100.00;101618.28;5116181;28;20034;-69
2023/03/16 02:23:22;;;;;;;12.95;6.40;;;;;;;3.69;100.00;101600.09;5115778;28;20039;-69
2023/03/16 02:26:16;;;;;;;12.40;6.40;;;;;;;3.65;100.00;101607.28;5116100;28;20110;-70
2023/03/16 02:29:03;;;;;;;17.67;6.82;;;;;;;3.61;100.00;101603.06;5095771;28;20035;-70
2023/03/16 02:31:29;;;;;;;10.40;6.35;;;;;;;3.56;100.00;101596.38;5095948;28;20105;-69
2023/03/16 02:33:56;;;;;;;9.50;6.50;;;;;;;3.54;100.00;101601.72;5094406;28;20469;-68
2023/03/16 02:36:21;;;;;;;12.27;6.38;;;;;;;3.56;100.00;101599.00;5094886;28;20119;-70
2023/03/16 02:38:46;;;;;;;14.05;6.78;;;;;;;3.57;100.00;101601.56;5095523;28;20110;-72
2023/03/16 02:41:20;;;;;;;11.50;6.63;;;;;;;3.58;100.00;101602.38;5095153;28;20119;-68
2023/03/16 02:44:02;;;;;;;11.45;6.88;;;;;;;3.59;100.00;101604.94;5095470;28;20099;-70
2023/03/16 02:46:34;;;;;;;9.38;6.15;;;;;;;3.58;100.00;101595.34;5095337;28;20081;-68
2023/03/16 02:49:11;;;;;;;9.55;6.40;;;;;;;3.59;100.00;101598.84;5095291;28;20040;-69
2023/03/16 02:51:36;;;;;;;19.40;6.75;;;;;;;3.59;100.00;101589.16;5095200;28;20024;-70
2023/03/16 02:54:02;;;;;;;10.13;6.75;;;;;;;3.63;100.00;101595.13;5094854;28;20490;-70
2023/03/16 02:56:27;;;;;;;10.63;6.28;;;;;;;3.65;100.00;101588.84;5094711;28;20074;-70
2023/03/16 02:58:53;;;;;;;11.15;7.10;;;;;;;3.66;100.00;101587.94;5093774;28;20112;-70
2023/03/16 03:01:19;;;;;;;15.80;6.53;;;;;;;3.68;100.00;101590.50;5093345;28;20035;-69
2023/03/16 03:03:44;;;;;;;12.68;6.25;;;;;;;3.68;100.00;101593.97;5094767;28;20028;-69
2023/03/16 03:06:10;;;;;;;15.82;6.75;;;;;;;3.70;100.00;101588.63;5094356;28;20032;-69
2023/03/16 03:08:35;;;;;;;8.38;6.32;;;;;;;3.70;100.00;101586.00;5093638;28;20533;-69
2023/03/16 03:11:01;;;;;;;9.43;5.88;;;;;;;3.67;100.00;101576.50;5095007;28;20487;-69
2023/03/16 03:13:26;;;;;;;9.00;6.10;;;;;;;3.68;100.00;101582.59;5093490;28;20107;-70
2023/03/16 03:15:52;;;;;;;13.65;6.80;;;;;;;3.65;100.00;101572.22;5094830;28;20119;-68
2023/03/16 03:18:17;;;;;;;14.35;6.57;;;;;;;3.63;100.00;101571.44;5094319;28;20366;-69
2023/03/16 03:20:42;;;;;;;9.50;6.20;;;;;;;3.62;100.00;101561.84;5095088;28;20111;-69
2023/03/16 03:23:08;;;;;;;12.75;7.47;;;;;;;3.61;100.00;101560.97;5094473;28;20031;-69
2023/03/16 03:25:34;;;;;;;11.70;6.18;;;;;;;3.60;100.00;101559.28;5094448;28;20028;-70
2023/03/16 03:28:04;;;;;;;12.05;7.20;;;;;;;3.58;100.00;101553.22;5111008;28;20143;-70
2023/03/16 03:30:29;;;;;;;9.70;6.57;;;;;;;3.59;100.00;101546.22;5114521;28;20380;-69
2023/03/16 03:32:55;;;;;;;13.98;7.13;;;;;;;3.60;100.00;101550.53;5114795;28;20053;-70
2023/03/16 03:35:20;;;;;;;10.75;6.40;;;;;;;3.61;100.00;101552.25;5114484;28;20039;-69
2023/03/16 03:37:46;;;;;;;11.55;6.55;;;;;;;3.60;100.00;101547.91;5114506;28;20452;-70
2023/03/16 03:40:14;;;;;;;10.55;6.28;;;;;;;3.63;100.00;101547.78;5112873;28;20385;-69
2023/03/16 03:42:40;;;;;;;12.80;6.28;;;;;;;3.63;100.00;101548.59;5114616;28;20074;-69
2023/03/16 03:45:07;;;;;;;10.70;6.53;;;;;;;3.65;100.00;101546.75;5114487;28;20484;-69
2023/03/16 03:47:33;;;;;;;12.35;6.50;;;;;;;3.68;100.00;101551.84;5113189;28;20475;-69
2023/03/16 03:49:58;;;;;;;9.75;6.07;;;;;;;3.69;100.00;101540.41;5114434;28;20049;-70
2023/03/16 03:52:24;;;;;;;8.80;6.22;;;;;;;3.69;100.00;101547.47;5113777;28;20464;-70
2023/03/16 03:54:50;;;;;;;11.35;6.72;;;;;;;3.72;100.00;101544.66;5114103;28;20032;-68
2023/03/16 03:57:16;;;;;;;14.02;5.70;;;;;;;3.75;100.00;101536.63;5112698;28;20028;-69
2023/03/16 03:59:42;;;;;;;12.40;6.80;;;;;;;3.79;100.00;101547.81;5114461;28;20479;-70
2023/03/16 04:02:09;;;;;;;12.20;6.35;;;;;;;3.80;100.00;101545.13;5112991;28;20039;-70
2023/03/16 04:04:35;;;;;;;12.05;6.05;;;;;;;3.82;100.00;101537.13;5113671;28;20036;-69
2023/03/16 04:07:00;;;;;;;11.00;5.68;;;;;;;3.82;100.00;101534.50;5114205;28;20038;-70
2023/03/16 04:09:25;;;;;;;10.50;5.85;;;;;;;3.82;100.00;101540.66;5113628;28;20084;-70
2023/03/16 04:11:51;;;;;;;12.77;6.50;;;;;;;3.83;100.00;101544.97;5114065;28;20426;-70
2023/03/16 04:14:16;;;;;;;11.80;6.55;;;;;;;3.84;100.00;101533.50;5112268;28;20040;-70
2023/03/16 04:16:43;;;;;;;10.15;6.18;;;;;;;3.84;100.00;101537.94;5114083;28;20023;-69
2023/03/16 04:19:10;;;;;;;8.98;5.43;;;;;;;3.83;100.00;101530.94;5114005;28;20115;-69
2023/03/16 04:21:36;;;;;;;10.88;5.65;;;;;;;3.82;100.00;101530.13;5113467;28;20031;-69
2023/03/16 04:24:04;;;;;;;12.85;5.85;;;;;;;3.80;100.00;101526.69;5113297;28;20032;-70
2023/03/16 04:26:30;;;;;;;9.63;5.63;;;;;;;3.77;100.00;101523.38;5112569;28;20560;-69
2023/03/16 04:28:55;;;;;;;11.88;5.38;;;;;;;3.76;100.00;101527.75;5112433;28;20032;-69
2023/03/16 04:31:21;;;;;;;11.38;5.50;;;;;;;3.75;100.00;101526.09;5113260;28;20034;-69
2023/03/16 04:33:46;;;;;;;17.75;5.80;;;;;;;3.73;100.00;101514.75;5112173;28;20031;-69
2023/03/16 04:36:12;;;;;;;12.68;5.75;;;;;;;3.73;100.00;101513.91;5113583;28;20425;-69
2023/03/16 04:38:37;;;;;;;12.23;5.75;;;;;;;3.72;100.00;101510.44;5111856;28;20035;-69
2023/03/16 04:41:04;;;;;;;7.18;4.88;;;;;;;3.70;100.00;101509.66;5112191;28;20027;-70
2023/03/16 04:43:33;;;;;;;11.20;5.45;;;;;;;3.65;100.00;101502.00;5113122;28;20054;-69
2023/03/16 04:46:01;;;;;;;15.40;5.60;;;;;;;3.63;100.00;101497.75;5113294;28;20027;-69
2023/03/16 04:48:28;;;;;;;11.52;5.68;;;;;;;3.59;100.00;101496.22;5112938;28;20463;-69
2023/03/16 04:50:53;;;;;;;9.00;5.28;;;;;;;3.58;100.00;101505.88;5113413;28;20050;-69
2023/03/16 04:53:18;;;;;;;9.80;5.80;;;;;;;3.52;100.00;101495.66;5112903;28;20444;-69
2023/03/16 04:55:45;;;;;;;10.48;5.57;;;;;;;3.49;100.00;101488.78;5113200;28;20040;-69
2023/03/16 04:58:12;;;;;;;13.88;5.57;;;;;;;3.46;100.00;101490.69;5112927;28;20035;-69
2023/03/16 05:00:39;;;;;;;8.77;5.82;;;;;;;3.43;100.00;101481.19;5112715;28;20110;-69
2023/03/16 05:03:05;;;;;;;10.73;5.93;;;;;;;3.40;100.00;101481.34;5111875;28;20035;-68
2023/03/16 05:05:30;;;;;;;13.70;5.47;;;;;;;3.39;100.00;101473.50;5112627;28;20032;-68
2023/03/16 05:07:55;;;;;;;12.02;5.43;;;;;;;3.38;100.00;101479.72;5113153;28;20032;-68
2023/03/16 05:10:21;;;;;;;8.90;5.00;;;;;;;3.35;100.00;101471.03;5112534;28;20031;-68
2023/03/16 05:12:46;;;;;;;10.95;4.30;;;;;;;3.34;100.00;101464.09;5112661;28;20032;-69
2023/03/16 05:15:12;;;;;;;7.13;4.22;;;;;;;3.34;100.00;101466.72;5112856;28;20032;-68
2023/03/16 05:17:40;;;;;;;12.02;4.55;;;;;;;3.34;100.00;101465.84;5112201;28;20391;-68
2023/03/16 05:20:07;;;;;;;7.78;3.92;;;;;;;3.35;100.00;101459.69;5112958;28;20085;-68
2023/03/16 05:22:34;;;;;;;8.60;3.97;;;;;;;3.35;100.00;101471.03;5112431;28;20385;-69
2023/03/16 05:25:02;;;;;;;10.13;4.00;;;;;;;3.38;100.00;101464.78;5112507;28;20452;-68
2023/03/16 05:27:28;;;;;;;6.95;3.13;;;;;;;3.41;100.00;101464.63;5112317;28;20093;-69
2023/03/16 05:29:54;;;;;;;7.57;3.65;;;;;;;3.47;100.00;101458.22;5111283;28;20439;-69
2023/03/16 05:32:19;;;;;;;5.45;2.90;;;;;;;3.49;100.00;101464.22;5112870;28;20067;-69
2023/03/16 05:34:45;;;;;;;5.03;2.70;;;;;;;3.49;100.00;101462.47;5112279;28;20487;-69
2023/03/16 05:37:11;;;;;;;9.77;2.90;;;;;;;3.47;100.00;101459.06;5111258;28;20241;-69
2023/03/16 05:39:36;;;;;;;7.53;2.92;;;;;;;3.50;100.00;101468.56;5112341;28;20529;-69
2023/03/16 05:42:02;;;;;;;7.00;2.60;;;;;;;3.52;100.00;101462.31;5112704;28;20054;-69
2023/03/16 05:44:28;;;;;;;8.00;3.03;;;;;;;3.51;100.00;101452.72;5112075;28;20080;-69
2023/03/16 05:46:53;;;;;;;10.80;3.92;;;;;;;3.56;100.00;101459.53;5112619;28;20036;-68
2023/03/16 05:49:18;;;;;;;10.15;3.17;;;;;;;3.56;100.00;101454.25;5111393;28;20059;-69
2023/03/16 05:51:43;;;;;;;7.75;3.05;;;;;;;3.56;100.00;101457.72;5112101;28;20036;-69
2023/03/16 05:54:09;;;;;;;8.57;3.25;;;;;;;3.55;100.00;101456.03;5112653;28;20032;-69
2023/03/16 05:56:34;;;;;;;6.63;2.90;;;;;;;3.53;100.00;101455.25;5112220;28;20141;-68
2023/03/16 05:59:00;;;;;;;6.70;3.15;;;;;;;3.54;100.00;101454.34;5112628;28;20053;-69
2023/03/16 06:01:26;;;;;;;6.85;3.30;;;;;;;3.56;100.00;101455.09;5112068;28;20035;-69
2023/03/16 06:03:51;;;;;;;9.30;3.30;;;;;;;3.57;100.00;101458.56;5112111;28;20042;-69
2023/03/16 06:06:18;;;;;;;5.50;3.05;;;;;;;3.55;100.00;101456.03;5112495;28;20100;-69
2023/03/16 06:08:44;;;;;;;8.82;3.10;;;;;;;3.58;100.00;101458.50;5111870;28;20035;-69
2023/03/16 06:11:10;;;;;;;6.93;3.30;;;;;;;3.58;100.00;101453.22;5112240;28;20449;-67
2023/03/16 06:13:36;;;;;;;7.20;3.15;;;;;;;3.59;100.00;101451.47;5111647;28;20035;-68
2023/03/16 06:16:02;;;;;;;4.85;3.00;;;;;;;3.58;100.00;101445.34;5112184;28;20035;-69
2023/03/16 06:18:28;;;;;;;5.80;2.95;;;;;;;3.57;100.00;101448.91;5112028;28;20540;-68
2023/03/16 06:20:53;;;;;;;9.70;3.25;;;;;;;3.57;100.00;101448.91;5112324;28;20028;-68
2023/03/16 06:23:20;;;;;;;9.60;3.17;;;;;;;3.57;100.00;101446.28;5111966;28;20031;-69
2023/03/16 06:25:48;;;;;;;4.95;2.97;;;;;;;3.59;100.00;101447.03;5111797;28;20058;-67
2023/03/16 06:28:14;;;;;;;6.72;3.10;;;;;;;3.61;100.00;101444.34;5111935;28;20047;-68
2023/03/16 06:30:40;;;;;;;4.63;2.72;;;;;;;3.61;100.00;101439.06;5110342;28;20032;-69
2023/03/16 06:33:06;;;;;;;6.45;3.10;;;;;;;3.60;100.00;101437.34;5112336;28;20032;-68
2023/03/16 06:35:32;;;;;;;7.03;2.97;;;;;;;3.61;100.00;101429.38;5111704;28;20547;-69
2023/03/16 06:37:58;;;;;;;7.60;3.25;;;;;;;3.61;100.00;101423.28;5112318;28;20035;-68
2023/03/16 06:40:23;;;;;;;7.72;3.45;;;;;;;3.60;100.00;101425.06;5112296;28;20140;-68
2023/03/16 06:42:48;;;;;;;9.00;3.28;;;;;;;3.61;100.00;101416.22;5099406;28;20373;-67
2023/03/16 06:45:15;;;;;;;4.75;2.80;;;;;;;3.60;100.00;101422.44;5088899;28;20217;-69
2023/03/16 06:47:42;;;;;;;5.72;3.05;;;;;;;3.63;100.00;101417.03;5088721;28;20043;-68
2023/03/16 06:50:09;;;;;;;4.68;2.97;;;;;;;3.63;100.00;101424.06;5092845;28;20065;-68
2023/03/16 06:52:34;;;;;;;7.80;2.92;;;;;;;3.61;100.00;101418.03;5091994;28;20093;-67
2023/03/16 06:55:00;;;;;;;8.30;3.15;;;;;;;3.60;100.00;101417.19;5090504;28;20457;-69
2023/03/16 06:57:25;;;;;;;5.03;3.10;;;;;;;3.60;100.00;101416.31;5092380;28;20064;-69
2023/03/16 06:59:50;;;;;;;4.35;3.00;;;;;;;3.60;100.00;101411.91;5091610;28;20036;-67
2023/03/16 07:02:16;;;;;;;10.20;3.30;;;;;;;3.62;100.00;101420.56;5092312;28;20130;-68
2023/03/16 07:04:41;;;;;;;7.05;3.35;;;;;;;3.65;100.00;101414.31;5091783;28;20036;-68
2023/03/16 07:07:07;;;;;;;7.45;2.97;;;;;;;3.65;100.00;101409.03;5091632;28;20476;-68
2023/03/16 07:09:33;;;;;;;9.77;3.25;;;;;;;3.71;100.00;101406.91;5124521;27;20032;-68
2023/03/16 07:11:58;;;;;;;6.80;3.00;;;;;;;3.77;100.00;101410.19;5092264;28;20088;-68
2023/03/16 07:14:25;;;;;;;5.57;3.10;;;;;;;3.84;100.00;101408.94;5092107;28;20051;-68
2023/03/16 07:16:51;;;;;;;8.63;3.13;;;;;;;3.89;100.00;101405.09;5091600;28;20024;-69
2023/03/16 07:19:17;;;;;;;11.52;3.45;;;;;;;3.96;100.00;101403.00;5091774;28;20477;-68
2023/03/16 07:21:42;;;;;;;5.40;2.63;;;;;;;4.03;100.00;101400.88;5091390;28;20039;-68
2023/03/16 07:24:08;;;;;;;7.15;2.67;;;;;;;4.09;100.00;101400.56;5092120;28;20051;-68
2023/03/16 07:26:34;;;;;;;9.38;2.75;;;;;;;4.19;100.00;101401.72;5091421;28;20052;-68
2023/03/16 07:29:00;;;;;;;11.70;3.42;;;;;;;4.28;100.00;101404.81;5091460;28;20044;-68
2023/03/16 07:31:25;;;;;;;6.40;2.70;;;;;;;4.38;100.00;101404.22;5091424;28;20036;-68
2023/03/16 07:33:51;;;;;;;6.75;2.45;;;;;;;4.45;100.00;101410.00;5091330;28;20036;-68
2023/03/16 07:36:17;;;;;;;3.92;2.55;;;;;;;4.54;100.00;101421.81;5091241;28;20068;-68
2023/03/16 07:38:42;;;;;;;7.80;2.65;;;;;;;4.59;100.00;101398.69;5091161;28;20067;-69
2023/03/16 07:41:07;;;;;;;8.10;3.45;;;;;;;4.62;100.00;101403.78;5090153;28;20032;-69
2023/03/16 07:43:33;;;;;;;14.02;5.32;;;;;;;4.62;100.00;101406.41;5091178;28;20545;-70
2023/03/16 07:46:00;;;;;;;7.32;2.85;;;;;;;4.63;100.00;101407.25;5091149;28;20036;-69
2023/03/16 07:48:26;;;;;;;5.53;2.67;;;;;;;4.64;100.00;101401.91;5091395;28;20028;-69
2023/03/16 07:50:51;;;;;;;9.75;2.90;;;;;;;4.68;100.00;101410.50;5091251;28;20310;-68
2023/03/16 07:53:16;;;;;;;4.82;2.50;;;;;;;4.73;100.00;101406.66;5091386;28;20055;-68
2023/03/16 07:55:42;;;;;;;7.57;2.33;;;;;;;4.79;100.00;101409.88;5090634;28;20032;-69
2023/03/16 07:58:09;;;;;;;7.22;2.55;;;;;;;4.85;100.00;101404.25;5092768;27;20031;-68
2023/03/16 08:00:36;;;;;;;5.63;2.38;;;;;;;4.89;100.00;101409.25;5105316;28;20034;-69
2023/03/16 08:03:02;;;;;;;9.98;2.42;;;;;;;4.97;100.00;101411.47;5111304;28;20462;-69
2023/03/16 08:05:27;;;;;;;5.72;2.33;;;;;;;5.07;100.00;101409.97;5113628;28;20026;-69
2023/03/16 08:07:54;;;;;;;6.47;2.70;;;;;;;5.11;100.00;101402.75;5113015;28;20027;-69
2023/03/16 08:10:20;;;;;;;7.07;2.50;;;;;;;5.09;100.00;101409.88;5113229;28;20055;-67
2023/03/16 08:12:46;;;;;;;8.57;2.50;;;;;;;5.08;100.00;101401.13;5113193;28;20066;-69
2023/03/16 08:15:12;;;;;;;7.53;2.80;;;;;;;5.11;100.00;101403.59;5113354;28;20593;-70
2023/03/16 08:17:40;;;;;;;7.00;2.65;;;;;;;5.12;100.00;101407.09;5113307;28;20426;-69
2023/03/16 08:20:09;;;;;;;4.40;2.60;;;;;;;5.15;100.00;101408.69;5112769;28;20085;-69
2023/03/16 08:22:35;;;;;;;3.30;2.22;;;;;;;5.15;100.00;101404.28;5113004;28;20039;-68
2023/03/16 08:25:02;;;;;;;6.55;2.92;;;;;;;5.21;100.00;101389.84;5112662;28;20035;-68
2023/03/16 08:27:28;;;;;;;5.55;2.50;;;;;;;5.20;100.00;101404.84;5112797;28;20468;-68
2023/03/16 08:29:54;;;;;;;6.70;2.30;;;;;;;5.24;100.00;101390.53;5112696;28;20111;-71
2023/03/16 08:32:20;;;;;;;4.63;2.60;;;;;;;5.32;100.00;101390.06;5111893;28;20520;-69
2023/03/16 08:34:46;;;;;;;7.13;2.40;;;;;;;5.45;100.00;101384.91;5112795;28;20126;-69
2023/03/16 08:37:12;;;;;;;5.90;2.50;;;;;;;5.60;100.00;101383.97;5112928;28;20041;-69
2023/03/16 08:39:42;;;;;;;4.75;2.67;;;;;;;5.74;100.00;101382.28;5112986;28;20031;-69
2023/03/16 08:42:10;;;;;;;7.60;2.65;;;;;;;5.83;100.00;101385.19;5112419;28;20039;-69
2023/03/16 08:44:36;;;;;;;6.90;2.65;;;;;;;5.98;100.00;101394.00;5112779;28;20479;-69
2023/03/16 08:47:04;;;;;;;7.15;2.83;;;;;;;6.08;100.00;101383.72;5112396;28;20032;-69
2023/03/16 08:49:29;;;;;;;4.18;2.55;;;;;;;6.21;100.00;101383.78;5112772;28;20028;-69
2023/03/16 08:51:54;;;;;;;4.22;2.42;;;;;;;6.35;100.00;101380.25;5111989;28;20057;-69
2023/03/16 08:54:21;;;;;;;4.70;2.33;;;;;;;6.42;100.00;101378.94;5112872;28;20047;-68
2023/03/16 08:56:46;;;;;;;5.32;2.17;;;;;;;6.51;100.00;101374.84;5112248;28;20491;-69
2023/03/16 08:59:12;;;;;;;6.80;2.38;;;;;;;6.68;100.00;101374.56;5111312;28;20035;-68
2023/03/16 09:01:39;;;;;;;3.92;2.35;;;;;;;6.76;100.00;101368.78;5112425;28;20032;-69
2023/03/16 09:04:04;;;;;;;9.30;2.17;;;;;;;6.91;100.00;101369.53;5112333;28;20043;-71
2023/03/16 09:06:32;;;;;;;4.40;2.00;;;;;;;7.16;100.00;101365.28;5112595;28;20042;-70
2023/03/16 09:08:58;;;;;;;6.00;2.00;;;;;;;7.38;100.00;101357.56;5112052;28;20448;-69
2023/03/16 09:11:27;;;;;;;3.78;2.13;;;;;;;7.77;100.00;101349.59;5111009;28;20039;-69
2023/03/16 09:13:53;;;;;;;6.07;2.20;;;;;;;8.01;100.00;101354.94;5111665;28;20468;-69
2023/03/16 09:16:19;;;;;;;5.72;2.60;;;;;;;8.19;100.00;101355.41;5112314;28;20027;-71
2023/03/16 09:18:45;;;;;;;6.85;2.45;;;;;;;8.51;100.00;101356.72;5112325;28;20028;-74
2023/03/16 09:21:13;;;;;;;7.13;2.25;;;;;;;9.04;100.00;101357.16;5111810;28;20111;-73
2023/03/16 09:23:40;;;;;;;3.88;2.10;;;;;;;9.85;100.00;101365.09;5111913;28;20099;-72
2023/03/16 09:26:06;;;;;;;5.20;2.10;;;;;;;11.28;100.00;101365.88;5110244;28;20593;-72
2023/03/16 09:28:34;;;;;;;4.65;2.03;;;;;;;11.93;90.90;101360.34;5112348;28;20083;-71
2023/03/16 09:31:01;;;;;;;4.68;2.20;;;;;;;11.94;88.44;101357.53;5111475;28;20460;-70
2023/03/16 09:33:28;;;;;;;5.50;2.10;;;;;;;11.23;85.75;101352.13;5112300;28;20483;-70
2023/03/16 09:35:56;;;;;;;6.55;1.83;;;;;;;11.48;84.83;101348.19;5110586;28;20031;-70
2023/03/16 09:38:25;;;;;;;6.45;2.00;;;;;;;12.04;84.94;101354.88;5111939;28;20035;-70
2023/03/16 09:40:57;;;;;;;9.30;2.85;;;;;;;12.54;77.99;101335.31;5111956;28;20043;-69
2023/03/16 09:43:57;;;;;;;6.88;2.30;;;;;;;12.75;73.78;101335.19;5111809;28;20036;-70
2023/03/16 09:46:44;;;;;;;4.78;2.13;;;;;;;12.08;80.14;101339.47;5111796;28;20042;-70
2023/03/16 09:49:11;;;;;;;7.40;2.00;;;;;;;11.42;83.76;101340.69;5111417;28;20023;-70
2023/03/16 09:52:02;;;;;;;3.47;1.90;;;;;;;11.02;89.37;101344.13;5110560;28;20046;-70
2023/03/16 09:54:33;;;;;;;4.90;2.23;;;;;;;10.77;97.73;101348.84;5110711;28;20056;-70
2023/03/16 09:56:59;;;;;;;;;;;;;;;10.42;100.00;101339.31;5110318;28;20036;-70
2023/03/16 09:59:26;;;;;;;4.60;2.00;;;;;;;10.24;100.00;101342.47;5111696;28;19936;-70
2023/03/16 10:02:43;;;;;;;4.55;2.40;;;;;;;9.92;100.00;101345.03;5111468;28;20039;-70
2023/03/16 10:05:11;;;;;;;5.75;2.10;;;;;;;9.89;100.00;101337.31;5048118;28;20029;-70
2023/03/16 10:08:04;;;;;;;5.38;2.20;;;;;;;9.81;100.00;101342.41;5048515;28;20075;-69
2023/03/16 10:10:38;;;;;;;5.60;2.22;;;;;;;9.87;100.00;101345.41;5096498;28;20040;-70
2023/03/16 10:13:21;;;;;;;3.88;1.95;;;;;;;10.17;100.00;101340.44;5110982;28;20479;-75
2023/03/16 10:15:49;;;;;;;7.90;2.58;;;;;;;10.45;100.00;101341.72;5111630;28;20027;-72
2023/03/16 10:18:22;;;;;;;4.60;1.98;;;;;;;10.52;100.00;101334.06;5111186;28;20089;-73
2023/03/16 10:20:51;;;;;;;3.00;1.88;;;;;;;10.60;99.54;101334.28;5111633;28;20110;-72
2023/03/16 10:23:20;;;;;;;5.95;2.10;;;;;;;10.47;91.13;101325.63;5112340;28;20034;-70
2023/03/16 10:25:46;;;;;;;7.68;2.90;;;;;;;10.58;88.57;101336.22;5115300;28;20027;-73
2023/03/16 10:28:15;;;;;;;5.70;2.08;;;;;;;10.73;96.60;101331.44;5114992;28;20051;-71
2023/03/16 10:30:41;;;;;;;4.80;2.15;;;;;;;10.86;91.02;101328.59;5115273;28;20031;-71
2023/03/16 10:33:24;;;;;;;5.93;2.75;;;;;;;11.09;83.94;101329.31;5114820;28;20091;-72
2023/03/16 10:36:29;;;;;;;7.88;2.17;;;;;;;10.72;83.92;101319.94;5115120;28;20032;-72
2023/03/16 10:39:04;;;;;;;5.85;2.40;;;;;;;10.66;86.68;101304.50;5115035;28;20028;-72
2023/03/16 10:41:39;;;;;;;3.60;2.00;;;;;;;10.82;94.09;101309.34;5113615;28;20059;-72
2023/03/16 10:44:10;;;;;;;4.32;1.83;;;;;;;10.62;84.94;101300.41;5114328;28;20096;-72
2023/03/16 10:46:46;;;;;;;10.02;1.88;;;;;;;10.73;88.04;101303.03;5113703;28;20114;-72
2023/03/16 10:49:26;;;;;;;9.90;2.47;;;;;;;10.58;87.26;101306.94;5114698;28;20368;-72
2023/03/16 10:51:58;;;;;;;5.03;1.90;;;;;;;10.65;95.45;101299.31;5114782;28;20035;-72
2023/03/16 10:54:33;;;;;;;7.82;2.20;;;;;;;10.44;93.84;101292.13;5114670;28;20153;-72
2023/03/16 10:56:59;;;;;;;7.30;2.55;;;;;;;10.33;88.15;101273.50;5114152;28;20066;-73
2023/03/16 10:59:26;;;;;;;5.38;1.92;;;;;;;10.34;95.29;101285.88;5114662;28;20023;-73
2023/03/16 11:01:53;;;;;;;5.47;2.10;;;;;;;10.13;89.69;101293.78;5114280;28;20059;-72
2023/03/16 11:04:19;;;;;;;4.88;1.88;;;;;;;10.01;94.61;101283.16;5114140;28;20381;-73
2023/03/16 11:06:53;;;;;;;5.82;2.10;;;;;;;9.93;98.82;101279.44;5114469;28;20042;-72
2023/03/16 11:09:25;;;;;;;5.18;1.70;;;;;;;9.95;97.19;101290.81;5114092;28;20036;-73
2023/03/16 11:11:51;;;;;;;4.47;2.05;;;;;;;9.95;96.11;101270.38;5113222;28;20451;-72
2023/03/16 11:14:21;;;;;;;4.07;1.90;;;;;;;9.99;96.12;101278.97;5114047;28;20032;-72
2023/03/16 11:17:13;;;;;;;7.50;2.10;;;;;;;10.02;91.33;101281.38;5114386;28;20165;-72
2023/03/16 11:19:59;;;;;;;2.25;1.90;;;;;;;10.03;86.11;101278.56;5112818;28;20023;-72
2023/03/16 11:22:26;;;;;;;4.43;1.55;;;;;;;10.09;88.91;101273.72;5114455;28;20122;-72
2023/03/16 11:24:55;;;;;;;4.97;1.45;;;;;;;10.02;85.84;101268.91;5114130;28;20034;-72
2023/03/16 11:27:25;;;;;;;3.20;1.55;;;;;;;10.07;84.70;101268.53;5113537;28;20078;-72